Hlavní strana
METAR-TAF:

METAR-TAF

Letiště :

Letiště Plzeň Líně

Plzeň, Česká republika

zeměpisná šířka: 49-40-31N, zeměpisná délka: 13-16-29E, výška: 362 m

Aktuální stav počasí

Zpráva byla vytvořena před 48 minutami, v 23:00 UTC
Západojihozápadní vítr 6 kt, proměnlivý mezi jihozápadním a západoseverozápadním
Teplota 9°C
Vlhkost vzduchu 71%
Tlak 1012 hPa
Viditelnost 10 km a více
Skoro jasno ve výšce 4400 ft
Polojasno ve výšce 5100 ft
Zataženo ve výšce 7200 ft

METAR: LKLN 212300Z AUTO 25006KT 220V300 9999 FEW044 SCT051 OVC072 09/04 Q1012

Čas: 01:48 (23:48 UTC)


TAF: chybějící

Stav a předpovědi počasí z více než 4 000 letišť (zprávy METAR a TAF).

Červené a žluté tečky na mapě představují dostupné meteorologické stanice.

Když kurzor umístíte na tečku, zobrazí se název stanice.

Pak kliknutím zobrazíte stav a předpověď počasí.

Chcete-li změnit mapu, kliknutím na zelené tlačítko se znaménkem +mapu přiblížíte, kliknutím na zelené tlačítko se znaménkem – mapu oddálíte a kliknutím na zelené šipky přejdete na sousední mapy.


METAR-TAF: